This is the latest recevied weather packets stored in our database for station/object KQ4UPF. If no packets are shown the sender has not sent any weather packets the latest 1 day(s).
| Time | Temp. | Humidity | Pressure | Rain* | Wind** | Luminosity | Snow |
|---|---|---|---|---|---|---|---|
| 1778016386 | 25° C | 55% | 1012.8 hPa | 0 mm | 0.89 m/s, 129° | 220 W/m² | - |
| 1778016085 | 25.56° C | 52% | 1012.3 hPa | 0 mm | 0 m/s | 274 W/m² | - |
| 1778015781 | 25.56° C | 47% | 1012.4 hPa | 0 mm | 0.45 m/s, 225° | 376 W/m² | - |
| 1778015478 | 25° C | 53% | 1012.4 hPa | 0 mm | 0.89 m/s, 219° | 512 W/m² | - |
| 1778015175 | 24.44° C | 49% | 1012.4 hPa | 0 mm | 0 m/s | 353 W/m² | - |
| 1778014872 | 24.44° C | 54% | 1012.5 hPa | 0 mm | 0 m/s | 293 W/m² | - |
| 1778014569 | 25° C | 48% | 1012.5 hPa | 0 mm | 1.34 m/s, 136° | 331 W/m² | - |
| 1778014267 | 25.56° C | 46% | 1012.4 hPa | 0 mm | 0.45 m/s, 115° | 441 W/m² | - |
| 1778013964 | 25° C | 52% | 1012.4 hPa | 0 mm | 0.45 m/s, 162° | 430 W/m² | - |
| 1778013661 | 24.44° C | 53% | 1012.5 hPa | 0 mm | 0.89 m/s, 94° | 785 W/m² | - |
| 1778013358 | 25° C | 52% | 1012.7 hPa | 0 mm | 0.45 m/s, 155° | 229 W/m² | - |
| 1778013055 | 25.56° C | 47% | 1012.5 hPa | 0 mm | 0.45 m/s, 206° | 194 W/m² | - |
| 1778012751 | 25.56° C | 49% | 1012.3 hPa | 0 mm | 0 m/s | 346 W/m² | - |
| 1778012447 | 25.56° C | 50% | 1012.7 hPa | 0 mm | 0 m/s | 445 W/m² | - |
| 1778012144 | 25.56° C | 53% | 1012.7 hPa | 0 mm | 0 m/s | 407 W/m² | - |
| 1778011842 | 25° C | 47% | 1012.5 hPa | 0 mm | 1.34 m/s, 248° | 516 W/m² | - |
| 1778011539 | 24.44° C | 50% | 1012.4 hPa | 0 mm | 0.89 m/s, 180° | 947 W/m² | - |
| 1778011236 | 23.89° C | 45% | 1012.4 hPa | 0 mm | 0.89 m/s, 57° | 398 W/m² | - |
| 1778010932 | 23.33° C | 48% | 1012.1 hPa | 0 mm | 1.34 m/s, 128° | 469 W/m² | - |
| 1778010630 | 23.89° C | 49% | 1012.8 hPa | 0 mm | 0.45 m/s, 105° | 185 W/m² | - |
| 1778010327 | 23.89° C | 48% | 1013.5 hPa | 0 mm | 0.45 m/s, 95° | 183 W/m² | - |
| 1778010022 | 24.44° C | 47% | 1013.9 hPa | 0 mm | 0.45 m/s, 110° | 208 W/m² | - |
| 1778009720 | 24.44° C | 46% | 1013.6 hPa | 0 mm | 0.89 m/s, 196° | 268 W/m² | - |
| 1778009417 | 25° C | 44% | 1013.6 hPa | 0 mm | 0.45 m/s, 13° | 344 W/m² | - |
| 1778009115 | 25° C | 39% | 1013.6 hPa | 0 mm | 0.89 m/s, 331° | 422 W/m² | - |
* Rain latest hour (hover to see other rain measurements)
** Current wind speed in m/s (hover to see current wind gust speed)